Terminal Aerodrome Forecast
Issued by NWS

Home | Current Version | Previous Version | Text Only | Print | Product List | Glossary On
Versions: 1 2 3 4 5 6 7 8 9 10 11 12 13 14 15 16 17
000
FTUS43 KPAH 290825 AAB
TAFCGI
TAF AMD
KCGI 290825Z 2908/3006 00000KT P6SM MIFG SKC
     FM291330 06007KT P6SM SCT040
     FM300000 08002KT P6SM BKN300=

USA.gov is the U.S. government's official web portal to all federal, state and local government web resources and services.